sensor_id;sensor_type;location;lat;lon;timestamp;pressure;altitude;pressure_sealevel;temperature;humidity
82575;BME280;72260;65.870;13.210;2023-11-21T00:01:57;101832.47;;;-15.90;75.08
82575;BME280;72260;65.870;13.210;2023-11-21T00:04:23;101850.03;;;-15.93;76.33
82575;BME280;72260;65.870;13.210;2023-11-21T00:06:49;101852.94;;;-15.74;76.45
82575;BME280;72260;65.870;13.210;2023-11-21T00:09:14;101848.63;;;-15.88;75.58
82575;BME280;72260;65.870;13.210;2023-11-21T00:11:44;101854.09;;;-15.69;74.65
82575;BME280;72260;65.870;13.210;2023-11-21T00:14:11;101864.25;;;-15.41;75.75
82575;BME280;72260;65.870;13.210;2023-11-21T00:16:36;101852.19;;;-15.17;74.20
82575;BME280;72260;65.870;13.210;2023-11-21T00:19:02;101855.00;;;-15.12;73.62
82575;BME280;72260;65.870;13.210;2023-11-21T00:21:27;101848.66;;;-15.34;77.20
82575;BME280;72260;65.870;13.210;2023-11-21T00:23:53;101857.81;;;-15.49;78.74
82575;BME280;72260;65.870;13.210;2023-11-21T00:26:18;101855.28;;;-15.49;79.20
82575;BME280;72260;65.870;13.210;2023-11-21T00:28:44;101857.03;;;-15.35;79.37
82575;BME280;72260;65.870;13.210;2023-11-21T00:31:10;101854.41;;;-15.36;77.74
82575;BME280;72260;65.870;13.210;2023-11-21T00:33:36;101854.69;;;-15.32;77.39
82575;BME280;72260;65.870;13.210;2023-11-21T00:36:01;101859.00;;;-15.16;78.37
82575;BME280;72260;65.870;13.210;2023-11-21T00:38:27;101854.78;;;-15.02;79.55
82575;BME280;72260;65.870;13.210;2023-11-21T00:40:53;101852.56;;;-14.83;78.15
82575;BME280;72260;65.870;13.210;2023-11-21T00:43:22;101853.41;;;-14.97;76.32
82575;BME280;72260;65.870;13.210;2023-11-21T00:45:48;101859.13;;;-15.14;77.25
82575;BME280;72260;65.870;13.210;2023-11-21T00:48:14;101858.91;;;-15.45;75.62
82575;BME280;72260;65.870;13.210;2023-11-21T00:50:40;101860.81;;;-15.82;75.85
82575;BME280;72260;65.870;13.210;2023-11-21T00:53:05;101855.16;;;-15.65;77.46
82575;BME280;72260;65.870;13.210;2023-11-21T00:55:32;101862.28;;;-15.59;75.59
82575;BME280;72260;65.870;13.210;2023-11-21T00:57:58;101866.69;;;-15.96;73.29
82575;BME280;72260;65.870;13.210;2023-11-21T01:00:23;101867.34;;;-16.12;76.06
82575;BME280;72260;65.870;13.210;2023-11-21T01:02:49;101867.66;;;-15.94;77.03
82575;BME280;72260;65.870;13.210;2023-11-21T01:05:14;101861.91;;;-15.66;76.92
82575;BME280;72260;65.870;13.210;2023-11-21T01:07:40;101853.13;;;-15.84;76.66
82575;BME280;72260;65.870;13.210;2023-11-21T01:10:06;101861.91;;;-15.92;77.30
82575;BME280;72260;65.870;13.210;2023-11-21T01:12:35;101870.94;;;-15.82;77.91
82575;BME280;72260;65.870;13.210;2023-11-21T01:15:01;101866.47;;;-15.60;77.55
82575;BME280;72260;65.870;13.210;2023-11-21T01:17:27;101851.78;;;-15.51;76.35
82575;BME280;72260;65.870;13.210;2023-11-21T01:19:53;101869.13;;;-15.31;75.65
82575;BME280;72260;65.870;13.210;2023-11-21T01:22:18;101883.75;;;-15.40;76.94
82575;BME280;72260;65.870;13.210;2023-11-21T01:24:47;101873.91;;;-15.35;77.67
82575;BME280;72260;65.870;13.210;2023-11-21T01:27:13;101877.03;;;-15.39;77.77
82575;BME280;72260;65.870;13.210;2023-11-21T01:29:38;101881.69;;;-15.45;78.20
82575;BME280;72260;65.870;13.210;2023-11-21T01:32:05;101873.13;;;-15.47;79.03
82575;BME280;72260;65.870;13.210;2023-11-21T01:34:32;101874.53;;;-15.24;78.75
82575;BME280;72260;65.870;13.210;2023-11-21T01:36:57;101876.47;;;-15.07;78.83
82575;BME280;72260;65.870;13.210;2023-11-21T01:39:23;101878.44;;;-14.88;79.07
82575;BME280;72260;65.870;13.210;2023-11-21T01:41:50;101874.88;;;-14.77;79.25
82575;BME280;72260;65.870;13.210;2023-11-21T01:44:17;101885.69;;;-14.67;80.29
82575;BME280;72260;65.870;13.210;2023-11-21T01:46:45;101881.06;;;-14.87;77.92
82575;BME280;72260;65.870;13.210;2023-11-21T01:49:12;101885.00;;;-15.33;74.66
82575;BME280;72260;65.870;13.210;2023-11-21T01:51:40;101879.41;;;-15.82;74.35
82575;BME280;72260;65.870;13.210;2023-11-21T01:54:06;101880.50;;;-15.65;76.01
82575;BME280;72260;65.870;13.210;2023-11-21T01:56:32;101886.53;;;-16.03;76.35
82575;BME280;72260;65.870;13.210;2023-11-21T01:58:59;101891.47;;;-16.30;77.33
82575;BME280;72260;65.870;13.210;2023-11-21T02:01:24;101899.25;;;-16.27;76.98
82575;BME280;72260;65.870;13.210;2023-11-21T02:03:51;101886.13;;;-16.09;77.39
82575;BME280;72260;65.870;13.210;2023-11-21T02:06:18;101888.88;;;-15.66;77.31
82575;BME280;72260;65.870;13.210;2023-11-21T02:08:43;101897.50;;;-15.49;78.61
82575;BME280;72260;65.870;13.210;2023-11-21T02:11:10;101895.63;;;-15.39;77.10
82575;BME280;72260;65.870;13.210;2023-11-21T02:13:38;101894.59;;;-15.14;76.62
82575;BME280;72260;65.870;13.210;2023-11-21T02:16:09;101894.88;;;-14.97;76.06
82575;BME280;72260;65.870;13.210;2023-11-21T02:18:38;101901.94;;;-14.91;75.93
82575;BME280;72260;65.870;13.210;2023-11-21T02:21:04;101893.25;;;-15.09;75.45
82575;BME280;72260;65.870;13.210;2023-11-21T02:23:30;101899.34;;;-15.34;75.07
82575;BME280;72260;65.870;13.210;2023-11-21T02:25:56;101899.94;;;-15.51;74.75
82575;BME280;72260;65.870;13.210;2023-11-21T02:28:21;101897.47;;;-15.64;74.85
82575;BME280;72260;65.870;13.210;2023-11-21T02:30:51;101894.72;;;-15.67;73.43
82575;BME280;72260;65.870;13.210;2023-11-21T02:33:21;101904.25;;;-15.89;76.14
82575;BME280;72260;65.870;13.210;2023-11-21T02:35:47;101905.44;;;-15.84;77.55
82575;BME280;72260;65.870;13.210;2023-11-21T02:38:12;101908.97;;;-15.69;76.46
82575;BME280;72260;65.870;13.210;2023-11-21T02:40:39;101909.84;;;-15.69;76.41
82575;BME280;72260;65.870;13.210;2023-11-21T02:43:04;101915.19;;;-15.64;77.53
82575;BME280;72260;65.870;13.210;2023-11-21T02:45:31;101915.78;;;-15.68;77.31
82575;BME280;72260;65.870;13.210;2023-11-21T02:47:57;101919.63;;;-15.47;76.87
82575;BME280;72260;65.870;13.210;2023-11-21T02:50:23;101905.00;;;-15.38;76.91
82575;BME280;72260;65.870;13.210;2023-11-21T02:52:49;101903.97;;;-15.13;76.05
82575;BME280;72260;65.870;13.210;2023-11-21T02:55:15;101908.91;;;-15.30;75.67
82575;BME280;72260;65.870;13.210;2023-11-21T02:57:40;101914.22;;;-15.25;75.07
82575;BME280;72260;65.870;13.210;2023-11-21T03:00:06;101924.09;;;-15.43;75.43
82575;BME280;72260;65.870;13.210;2023-11-21T03:02:41;101912.03;;;-15.34;76.07
82575;BME280;72260;65.870;13.210;2023-11-21T03:05:07;101917.09;;;-15.34;75.08
82575;BME280;72260;65.870;13.210;2023-11-21T03:07:38;101920.16;;;-15.24;76.13
82575;BME280;72260;65.870;13.210;2023-11-21T03:10:04;101919.03;;;-15.30;75.50
82575;BME280;72260;65.870;13.210;2023-11-21T03:12:30;101923.91;;;-15.46;75.08
82575;BME280;72260;65.870;13.210;2023-11-21T03:14:55;101923.03;;;-15.46;77.09
82575;BME280;72260;65.870;13.210;2023-11-21T03:17:21;101929.28;;;-15.28;79.40
82575;BME280;72260;65.870;13.210;2023-11-21T03:19:46;101925.13;;;-15.00;80.68
82575;BME280;72260;65.870;13.210;2023-11-21T03:22:12;101935.91;;;-14.89;77.75
82575;BME280;72260;65.870;13.210;2023-11-21T03:24:38;101930.78;;;-15.04;74.59
82575;BME280;72260;65.870;13.210;2023-11-21T03:27:04;101909.91;;;-15.13;76.34
82575;BME280;72260;65.870;13.210;2023-11-21T03:29:30;101907.53;;;-15.38;74.37
82575;BME280;72260;65.870;13.210;2023-11-21T03:31:55;101918.66;;;-15.49;74.11
82575;BME280;72260;65.870;13.210;2023-11-21T03:34:26;101921.78;;;-15.40;74.79
82575;BME280;72260;65.870;13.210;2023-11-21T03:36:52;101913.09;;;-15.43;74.16
82575;BME280;72260;65.870;13.210;2023-11-21T03:39:22;101924.09;;;-15.43;75.03
82575;BME280;72260;65.870;13.210;2023-11-21T03:41:48;101930.72;;;-15.45;73.93
82575;BME280;72260;65.870;13.210;2023-11-21T03:44:14;101931.09;;;-15.12;78.38
82575;BME280;72260;65.870;13.210;2023-11-21T03:46:39;101938.94;;;-15.36;77.37
82575;BME280;72260;65.870;13.210;2023-11-21T03:49:05;101948.34;;;-15.61;73.58
82575;BME280;72260;65.870;13.210;2023-11-21T03:51:30;101942.44;;;-16.00;73.57
82575;BME280;72260;65.870;13.210;2023-11-21T03:53:56;101942.09;;;-16.17;76.76
82575;BME280;72260;65.870;13.210;2023-11-21T03:56:21;101950.91;;;-15.99;76.79
82575;BME280;72260;65.870;13.210;2023-11-21T03:58:48;101949.19;;;-15.74;74.67
82575;BME280;72260;65.870;13.210;2023-11-21T04:01:23;101951.03;;;-15.98;73.10
82575;BME280;72260;65.870;13.210;2023-11-21T04:03:49;101944.78;;;-16.03;73.52
82575;BME280;72260;65.870;13.210;2023-11-21T04:06:16;101937.03;;;-16.30;73.14
82575;BME280;72260;65.870;13.210;2023-11-21T04:08:43;101934.69;;;-16.65;75.41
82575;BME280;72260;65.870;13.210;2023-11-21T04:11:09;101944.13;;;-16.50;75.85
82575;BME280;72260;65.870;13.210;2023-11-21T04:13:37;101946.16;;;-16.71;75.05
82575;BME280;72260;65.870;13.210;2023-11-21T04:16:04;101950.44;;;-16.70;75.30
82575;BME280;72260;65.870;13.210;2023-11-21T04:18:30;101964.19;;;-16.28;75.14
82575;BME280;72260;65.870;13.210;2023-11-21T04:20:55;101963.41;;;-16.27;75.65
82575;BME280;72260;65.870;13.210;2023-11-21T04:23:20;101954.69;;;-16.06;76.24
82575;BME280;72260;65.870;13.210;2023-11-21T04:25:46;101959.09;;;-15.90;75.24
82575;BME280;72260;65.870;13.210;2023-11-21T04:28:11;101955.00;;;-15.88;74.88
82575;BME280;72260;65.870;13.210;2023-11-21T04:30:37;101951.69;;;-15.87;76.71
82575;BME280;72260;65.870;13.210;2023-11-21T04:33:04;101960.78;;;-15.77;78.86
82575;BME280;72260;65.870;13.210;2023-11-21T04:35:30;101973.66;;;-15.61;79.62
82575;BME280;72260;65.870;13.210;2023-11-21T04:37:55;101966.91;;;-15.47;79.60
82575;BME280;72260;65.870;13.210;2023-11-21T04:40:22;101966.41;;;-15.42;78.46
82575;BME280;72260;65.870;13.210;2023-11-21T04:42:48;101964.16;;;-15.24;78.38
82575;BME280;72260;65.870;13.210;2023-11-21T04:45:13;101961.31;;;-15.15;78.32
82575;BME280;72260;65.870;13.210;2023-11-21T04:47:39;101963.44;;;-14.95;80.14
82575;BME280;72260;65.870;13.210;2023-11-21T04:50:05;101969.94;;;-14.85;78.54
82575;BME280;72260;65.870;13.210;2023-11-21T04:52:31;101964.38;;;-14.93;75.82
82575;BME280;72260;65.870;13.210;2023-11-21T04:54:58;101973.03;;;-15.04;75.40
82575;BME280;72260;65.870;13.210;2023-11-21T04:57:26;101958.19;;;-15.11;74.66
82575;BME280;72260;65.870;13.210;2023-11-21T04:59:51;101956.81;;;-15.60;74.17
82575;BME280;72260;65.870;13.210;2023-11-21T05:02:17;101960.38;;;-15.96;74.83
82575;BME280;72260;65.870;13.210;2023-11-21T05:04:45;101961.94;;;-15.99;75.20
82575;BME280;72260;65.870;13.210;2023-11-21T05:07:10;101959.19;;;-15.88;75.73
82575;BME280;72260;65.870;13.210;2023-11-21T05:09:41;101954.38;;;-16.10;74.97
82575;BME280;72260;65.870;13.210;2023-11-21T05:12:07;101961.97;;;-16.10;76.24
82575;BME280;72260;65.870;13.210;2023-11-21T05:14:32;101961.03;;;-15.99;74.68
82575;BME280;72260;65.870;13.210;2023-11-21T05:16:58;101958.22;;;-16.04;75.95
82575;BME280;72260;65.870;13.210;2023-11-21T05:19:24;101969.00;;;-16.06;77.98
82575;BME280;72260;65.870;13.210;2023-11-21T05:21:49;101968.34;;;-15.90;76.82
82575;BME280;72260;65.870;13.210;2023-11-21T05:24:15;101970.19;;;-16.39;75.31
82575;BME280;72260;65.870;13.210;2023-11-21T05:26:41;101960.91;;;-16.14;75.71
82575;BME280;72260;65.870;13.210;2023-11-21T05:29:06;101963.16;;;-16.05;75.76
82575;BME280;72260;65.870;13.210;2023-11-21T05:31:32;101966.38;;;-16.08;74.48
82575;BME280;72260;65.870;13.210;2023-11-21T05:33:57;101963.44;;;-16.14;74.68
82575;BME280;72260;65.870;13.210;2023-11-21T05:36:22;101949.81;;;-16.41;75.85
82575;BME280;72260;65.870;13.210;2023-11-21T05:38:48;101963.66;;;-16.36;75.77
82575;BME280;72260;65.870;13.210;2023-11-21T05:41:13;101962.72;;;-16.49;75.67
82575;BME280;72260;65.870;13.210;2023-11-21T05:43:40;101969.75;;;-16.45;76.87
82575;BME280;72260;65.870;13.210;2023-11-21T05:46:06;101973.69;;;-16.37;75.83
82575;BME280;72260;65.870;13.210;2023-11-21T05:48:34;101973.78;;;-16.36;76.77
82575;BME280;72260;65.870;13.210;2023-11-21T05:51:04;101975.66;;;-16.33;77.29
82575;BME280;72260;65.870;13.210;2023-11-21T05:53:29;101972.88;;;-16.24;76.83
82575;BME280;72260;65.870;13.210;2023-11-21T05:55:55;101967.28;;;-15.94;75.76
82575;BME280;72260;65.870;13.210;2023-11-21T05:58:21;101970.72;;;-15.93;76.80
82575;BME280;72260;65.870;13.210;2023-11-21T06:00:46;101963.13;;;-15.67;78.98
82575;BME280;72260;65.870;13.210;2023-11-21T06:03:12;101967.56;;;-15.10;80.98
82575;BME280;72260;65.870;13.210;2023-11-21T06:05:38;101971.06;;;-14.95;78.38
82575;BME280;72260;65.870;13.210;2023-11-21T06:08:03;101968.72;;;-15.18;76.20
82575;BME280;72260;65.870;13.210;2023-11-21T06:10:29;101975.69;;;-15.29;75.38
82575;BME280;72260;65.870;13.210;2023-11-21T06:12:55;101987.59;;;-15.68;74.75
82575;BME280;72260;65.870;13.210;2023-11-21T06:15:20;102004.84;;;-15.62;74.23
82575;BME280;72260;65.870;13.210;2023-11-21T06:17:47;101996.81;;;-15.55;74.83
82575;BME280;72260;65.870;13.210;2023-11-21T06:20:17;102003.38;;;-15.58;74.74
82575;BME280;72260;65.870;13.210;2023-11-21T06:22:46;101993.59;;;-15.79;73.49
82575;BME280;72260;65.870;13.210;2023-11-21T06:25:12;101997.47;;;-15.97;72.88
82575;BME280;72260;65.870;13.210;2023-11-21T06:27:43;102000.31;;;-16.17;73.21
82575;BME280;72260;65.870;13.210;2023-11-21T06:30:10;101987.00;;;-16.15;74.65
82575;BME280;72260;65.870;13.210;2023-11-21T06:32:37;101997.06;;;-16.03;76.21
82575;BME280;72260;65.870;13.210;2023-11-21T06:35:04;101998.56;;;-15.93;76.08
82575;BME280;72260;65.870;13.210;2023-11-21T06:37:30;102000.50;;;-15.89;73.97
82575;BME280;72260;65.870;13.210;2023-11-21T06:39:57;101988.06;;;-16.11;72.85
82575;BME280;72260;65.870;13.210;2023-11-21T06:42:23;101983.38;;;-16.43;74.46
82575;BME280;72260;65.870;13.210;2023-11-21T06:44:49;101977.31;;;-16.58;75.17
82575;BME280;72260;65.870;13.210;2023-11-21T06:47:17;101977.66;;;-16.41;76.22
82575;BME280;72260;65.870;13.210;2023-11-21T06:49:43;101990.81;;;-16.08;76.65
82575;BME280;72260;65.870;13.210;2023-11-21T06:52:09;101990.59;;;-16.11;76.70
82575;BME280;72260;65.870;13.210;2023-11-21T06:54:34;101978.88;;;-16.22;75.70
82575;BME280;72260;65.870;13.210;2023-11-21T06:57:00;101977.63;;;-16.29;73.48
82575;BME280;72260;65.870;13.210;2023-11-21T06:59:28;101964.28;;;-16.51;75.07
82575;BME280;72260;65.870;13.210;2023-11-21T07:01:53;101989.97;;;-16.34;76.48
82575;BME280;72260;65.870;13.210;2023-11-21T07:04:19;101994.06;;;-16.22;76.33
82575;BME280;72260;65.870;13.210;2023-11-21T07:06:45;101992.25;;;-16.12;75.77
82575;BME280;72260;65.870;13.210;2023-11-21T07:09:11;101997.75;;;-16.06;75.96
82575;BME280;72260;65.870;13.210;2023-11-21T07:11:37;102000.22;;;-16.19;75.45
82575;BME280;72260;65.870;13.210;2023-11-21T07:14:03;101998.53;;;-16.32;74.41
82575;BME280;72260;65.870;13.210;2023-11-21T07:16:36;102014.31;;;-16.47;73.40
82575;BME280;72260;65.870;13.210;2023-11-21T07:19:06;102022.75;;;-16.96;74.79
82575;BME280;72260;65.870;13.210;2023-11-21T07:21:32;102021.84;;;-16.97;77.75
82575;BME280;72260;65.870;13.210;2023-11-21T07:24:00;102017.56;;;-16.61;76.87
82575;BME280;72260;65.870;13.210;2023-11-21T07:26:27;102021.31;;;-16.32;75.24
82575;BME280;72260;65.870;13.210;2023-11-21T07:28:53;102022.53;;;-16.38;74.81
82575;BME280;72260;65.870;13.210;2023-11-21T07:31:18;102010.97;;;-16.35;75.75
82575;BME280;72260;65.870;13.210;2023-11-21T07:33:45;102017.34;;;-16.28;75.05
82575;BME280;72260;65.870;13.210;2023-11-21T07:36:13;102015.03;;;-16.25;75.90
82575;BME280;72260;65.870;13.210;2023-11-21T07:38:38;102023.22;;;-16.41;75.07
82575;BME280;72260;65.870;13.210;2023-11-21T07:41:04;102012.38;;;-16.26;73.05
82575;BME280;72260;65.870;13.210;2023-11-21T07:43:30;102011.47;;;-16.77;72.88
82575;BME280;72260;65.870;13.210;2023-11-21T07:46:01;102014.50;;;-16.94;75.63
82575;BME280;72260;65.870;13.210;2023-11-21T07:48:28;102014.81;;;-16.89;76.40
82575;BME280;72260;65.870;13.210;2023-11-21T07:50:54;102015.75;;;-16.64;76.60
82575;BME280;72260;65.870;13.210;2023-11-21T07:53:19;102013.22;;;-16.64;76.55
82575;BME280;72260;65.870;13.210;2023-11-21T07:55:45;102008.25;;;-16.38;76.85
82575;BME280;72260;65.870;13.210;2023-11-21T07:58:12;102002.84;;;-16.17;74.37
82575;BME280;72260;65.870;13.210;2023-11-21T08:00:38;102004.31;;;-16.46;75.77
82575;BME280;72260;65.870;13.210;2023-11-21T08:03:05;102002.88;;;-16.54;75.21
82575;BME280;72260;65.870;13.210;2023-11-21T08:05:31;101999.91;;;-16.73;75.24
82575;BME280;72260;65.870;13.210;2023-11-21T08:07:56;102012.91;;;-16.55;74.87
82575;BME280;72260;65.870;13.210;2023-11-21T08:10:22;102005.91;;;-16.35;76.29
82575;BME280;72260;65.870;13.210;2023-11-21T08:12:48;102006.78;;;-16.34;75.52
82575;BME280;72260;65.870;13.210;2023-11-21T08:15:14;101998.34;;;-16.21;75.80
82575;BME280;72260;65.870;13.210;2023-11-21T08:17:39;102014.47;;;-16.08;75.85
82575;BME280;72260;65.870;13.210;2023-11-21T08:20:06;102001.97;;;-15.93;75.46
82575;BME280;72260;65.870;13.210;2023-11-21T08:22:31;102024.56;;;-15.96;77.38
82575;BME280;72260;65.870;13.210;2023-11-21T08:24:57;102017.78;;;-16.34;76.28
82575;BME280;72260;65.870;13.210;2023-11-21T08:27:23;102032.16;;;-15.96;74.93
82575;BME280;72260;65.870;13.210;2023-11-21T08:29:48;102020.75;;;-15.89;73.32
82575;BME280;72260;65.870;13.210;2023-11-21T08:32:14;102008.28;;;-16.49;71.72
82575;BME280;72260;65.870;13.210;2023-11-21T08:34:40;102013.41;;;-16.36;72.77
82575;BME280;72260;65.870;13.210;2023-11-21T08:37:08;102014.94;;;-16.38;73.09
82575;BME280;72260;65.870;13.210;2023-11-21T08:39:33;102025.19;;;-16.37;74.90
82575;BME280;72260;65.870;13.210;2023-11-21T08:41:59;102018.44;;;-16.24;74.29
82575;BME280;72260;65.870;13.210;2023-11-21T08:44:24;102011.88;;;-16.21;73.40
82575;BME280;72260;65.870;13.210;2023-11-21T08:46:50;102015.41;;;-16.44;74.77
82575;BME280;72260;65.870;13.210;2023-11-21T08:49:15;102006.91;;;-16.33;75.79
82575;BME280;72260;65.870;13.210;2023-11-21T08:51:44;102007.69;;;-16.20;75.39
82575;BME280;72260;65.870;13.210;2023-11-21T08:54:09;102008.38;;;-16.23;74.52
82575;BME280;72260;65.870;13.210;2023-11-21T08:56:37;101994.28;;;-16.44;74.88
82575;BME280;72260;65.870;13.210;2023-11-21T08:59:03;101995.03;;;-16.58;75.37
82575;BME280;72260;65.870;13.210;2023-11-21T09:01:31;101992.50;;;-16.34;75.27
82575;BME280;72260;65.870;13.210;2023-11-21T09:03:58;102002.25;;;-16.26;75.46
82575;BME280;72260;65.870;13.210;2023-11-21T09:06:24;101996.84;;;-16.81;73.19
82575;BME280;72260;65.870;13.210;2023-11-21T09:08:50;101995.53;;;-16.87;74.09
82575;BME280;72260;65.870;13.210;2023-11-21T09:11:15;101988.56;;;-17.03;73.13
82575;BME280;72260;65.870;13.210;2023-11-21T09:13:41;101977.69;;;-17.02;72.52
82575;BME280;72260;65.870;13.210;2023-11-21T09:16:07;101985.38;;;-17.12;74.42
82575;BME280;72260;65.870;13.210;2023-11-21T09:18:32;101995.25;;;-17.04;73.76
82575;BME280;72260;65.870;13.210;2023-11-21T09:20:58;101984.25;;;-16.92;75.88
82575;BME280;72260;65.870;13.210;2023-11-21T09:23:24;101982.22;;;-16.73;74.39
82575;BME280;72260;65.870;13.210;2023-11-21T09:25:49;101980.09;;;-16.92;74.03
82575;BME280;72260;65.870;13.210;2023-11-21T09:28:17;101972.59;;;-16.90;74.08
82575;BME280;72260;65.870;13.210;2023-11-21T09:30:43;101960.31;;;-16.97;74.37
82575;BME280;72260;65.870;13.210;2023-11-21T09:33:09;101972.22;;;-16.83;73.53
82575;BME280;72260;65.870;13.210;2023-11-21T09:35:38;101970.97;;;-16.90;74.95
82575;BME280;72260;65.870;13.210;2023-11-21T09:38:04;101969.47;;;-16.75;76.27
82575;BME280;72260;65.870;13.210;2023-11-21T09:40:37;101973.13;;;-16.33;78.07
82575;BME280;72260;65.870;13.210;2023-11-21T09:43:08;101973.81;;;-16.22;77.36
82575;BME280;72260;65.870;13.210;2023-11-21T09:45:45;101971.22;;;-16.11;75.40
82575;BME280;72260;65.870;13.210;2023-11-21T09:48:11;101973.00;;;-16.10;74.80
82575;BME280;72260;65.870;13.210;2023-11-21T09:50:37;101969.56;;;-16.10;74.93
82575;BME280;72260;65.870;13.210;2023-11-21T09:53:21;101975.16;;;-16.03;75.44
82575;BME280;72260;65.870;13.210;2023-11-21T09:55:51;101972.47;;;-15.92;74.17
82575;BME280;72260;65.870;13.210;2023-11-21T09:58:18;101962.34;;;-16.17;73.57
82575;BME280;72260;65.870;13.210;2023-11-21T10:00:49;101966.53;;;-16.18;73.34
82575;BME280;72260;65.870;13.210;2023-11-21T10:03:15;101970.34;;;-16.24;74.54
82575;BME280;72260;65.870;13.210;2023-11-21T10:05:45;101974.19;;;-16.05;74.01
82575;BME280;72260;65.870;13.210;2023-11-21T10:08:13;101966.84;;;-16.13;74.42
82575;BME280;72260;65.870;13.210;2023-11-21T10:10:44;101960.91;;;-16.14;74.60
82575;BME280;72260;65.870;13.210;2023-11-21T10:13:12;101958.03;;;-15.93;74.13
82575;BME280;72260;65.870;13.210;2023-11-21T10:15:38;101952.28;;;-16.04;73.30
82575;BME280;72260;65.870;13.210;2023-11-21T10:18:07;101950.19;;;-16.10;74.38
82575;BME280;72260;65.870;13.210;2023-11-21T10:20:33;101954.44;;;-16.35;74.78
82575;BME280;72260;65.870;13.210;2023-11-21T10:22:59;101940.91;;;-16.22;75.85
82575;BME280;72260;65.870;13.210;2023-11-21T10:25:27;101942.44;;;-16.00;77.03
82575;BME280;72260;65.870;13.210;2023-11-21T10:27:58;101935.84;;;-15.71;75.63
82575;BME280;72260;65.870;13.210;2023-11-21T10:30:36;101923.03;;;-15.46;74.77
82575;BME280;72260;65.870;13.210;2023-11-21T10:33:06;101935.59;;;-15.48;75.10
82575;BME280;72260;65.870;13.210;2023-11-21T10:35:45;101944.09;;;-15.34;75.36
82575;BME280;72260;65.870;13.210;2023-11-21T10:38:12;101940.44;;;-15.24;75.54
82575;BME280;72260;65.870;13.210;2023-11-21T10:40:40;101945.22;;;-15.16;74.64
82575;BME280;72260;65.870;13.210;2023-11-21T10:43:07;101940.88;;;-15.45;74.79
82575;BME280;72260;65.870;13.210;2023-11-21T10:45:38;101951.31;;;-15.40;74.96
82575;BME280;72260;65.870;13.210;2023-11-21T10:48:08;101954.19;;;-15.62;75.33
82575;BME280;72260;65.870;13.210;2023-11-21T10:50:37;101963.38;;;-15.49;75.27
82575;BME280;72260;65.870;13.210;2023-11-21T10:53:04;101971.41;;;-15.30;74.85
82575;BME280;72260;65.870;13.210;2023-11-21T10:55:30;101978.38;;;-15.13;76.28
82575;BME280;72260;65.870;13.210;2023-11-21T10:57:59;101971.00;;;-14.82;74.96
82575;BME280;72260;65.870;13.210;2023-11-21T11:00:27;101962.81;;;-14.50;74.62
82575;BME280;72260;65.870;13.210;2023-11-21T11:02:53;101961.09;;;-14.21;72.93
82575;BME280;72260;65.870;13.210;2023-11-21T11:05:26;101961.13;;;-14.07;73.25
82575;BME280;72260;65.870;13.210;2023-11-21T11:08:04;101941.25;;;-13.99;73.49
82575;BME280;72260;65.870;13.210;2023-11-21T11:10:30;101943.22;;;-13.94;72.22
82575;BME280;72260;65.870;13.210;2023-11-21T11:12:57;101954.38;;;-14.06;72.46
82575;BME280;72260;65.870;13.210;2023-11-21T11:15:24;101940.00;;;-13.91;73.88
82575;BME280;72260;65.870;13.210;2023-11-21T11:17:49;101932.38;;;-13.91;73.94
82575;BME280;72260;65.870;13.210;2023-11-21T11:20:16;101919.81;;;-13.59;73.45
82575;BME280;72260;65.870;13.210;2023-11-21T11:31:18;101908.63;;;-14.21;71.81
82575;BME280;72260;65.870;13.210;2023-11-21T11:34:04;101899.09;;;-14.10;70.31
82575;BME280;72260;65.870;13.210;2023-11-21T11:36:55;101896.56;;;-14.82;71.79
82575;BME280;72260;65.870;13.210;2023-11-21T11:39:27;101893.22;;;-14.96;73.70
82575;BME280;72260;65.870;13.210;2023-11-21T11:41:55;101883.97;;;-14.81;73.01
82575;BME280;72260;65.870;13.210;2023-11-21T11:47:24;101876.63;;;-14.76;73.40
82575;BME280;72260;65.870;13.210;2023-11-21T11:52:48;101870.97;;;-14.57;73.29
82575;BME280;72260;65.870;13.210;2023-11-21T11:55:17;101863.91;;;-14.48;73.58
82575;BME280;72260;65.870;13.210;2023-11-21T11:57:51;101861.44;;;-14.32;72.34
82575;BME280;72260;65.870;13.210;2023-11-21T12:00:21;101857.66;;;-14.39;74.17
82575;BME280;72260;65.870;13.210;2023-11-21T12:02:55;101875.88;;;-14.61;74.34
82575;BME280;72260;65.870;13.210;2023-11-21T12:05:26;101867.19;;;-14.79;71.41
82575;BME280;72260;65.870;13.210;2023-11-21T12:08:00;101872.53;;;-15.02;73.64
82575;BME280;72260;65.870;13.210;2023-11-21T12:10:27;101873.94;;;-14.92;74.37
82575;BME280;72260;65.870;13.210;2023-11-21T12:12:56;101871.66;;;-14.75;74.21
82575;BME280;72260;65.870;13.210;2023-11-21T12:15:23;101866.41;;;-15.06;73.40
82575;BME280;72260;65.870;13.210;2023-11-21T12:17:50;101864.81;;;-15.32;75.31
82575;BME280;72260;65.870;13.210;2023-11-21T12:20:21;101864.53;;;-14.95;74.88
82575;BME280;72260;65.870;13.210;2023-11-21T12:22:49;101859.69;;;-15.18;74.23
82575;BME280;72260;65.870;13.210;2023-11-21T12:25:15;101873.91;;;-14.79;74.73
82575;BME280;72260;65.870;13.210;2023-11-21T12:27:45;101882.53;;;-14.63;74.37
82575;BME280;72260;65.870;13.210;2023-11-21T12:30:11;101881.19;;;-14.71;74.39
82575;BME280;72260;65.870;13.210;2023-11-21T12:32:41;101879.91;;;-14.64;75.18
82575;BME280;72260;65.870;13.210;2023-11-21T12:35:09;101871.94;;;-14.55;73.91
82575;BME280;72260;65.870;13.210;2023-11-21T12:37:36;101878.06;;;-14.52;73.16
82575;BME280;72260;65.870;13.210;2023-11-21T12:40:04;101866.41;;;-14.78;71.41
82575;BME280;72260;65.870;13.210;2023-11-21T12:42:30;101866.53;;;-14.89;72.39
82575;BME280;72260;65.870;13.210;2023-11-21T12:45:18;101869.41;;;-14.98;71.29